Terminal Aerodrome Forecast
Issued by NWS

Home | Current Version | Previous Version | Graphics & Text | Print | Product List | Glossary On
Versions: 1 2 3 4 5 6 7 8 9 10 11 12 13
000
FTUS43 KFGF 242335
TAFBJI
TAF
KBJI 242335Z 2500/2524 30012KT P6SM VCSH SCT025 BKN040
     FM250200 29010KT P6SM -SHRA SCT015 BKN025
      TEMPO 2503/2506 4SM -SHRA OVC010
     FM250600 30009KT P6SM -DZ OVC015
     FM251300 31011KT P6SM BKN015
     FM251500 31012G18KT P6SM BKN025=

USA.gov is the U.S. government's official web portal to all federal, state and local government web resources and services.